Aviation Digital Data Service (ADDS)

Output produced by METARs form (1144 UTC 27 May 2017)
found at http://www.aviationweather.gov/adds/metars/
 
NZAA 271130Z AUTO 26008KT 8000 -RA SCT008/// BKN020/// OVC025/// 15/15 Q1012 TEMPO 4000 RADZ BKN006
TAF NZAA 271116Z 2712/2812 25010KT 9999 -SHRA FEW010 BKN020 
     TEMPO 2712/2718 3000 RADZ BKN006 
     PROB40 2712/2723 0500 FG 
     BECMG 2714/2716 VRB02KT 
     BECMG 2722/2800 26010KT 
     BECMG 2803/2805 VRB02KT
       
NZCH 271130Z AUTO 25007KT 220V300 9999 BKN080/// 09/07 Q1021 NOSIG
TAF NZCH 271116Z 2712/2812 22005KT 9999 BKN060 
     PROB40 2714/2720 0400 FG BKN001 
     BECMG 2804/2806 05010KT
       
NZWN 271130Z AUTO 18021KT 9999 BKN014/// 12/10 Q1018 TEMPO 6000 RADZ
TAF NZWN 271116Z 2712/2812 19025G40KT 9999 -RADZ BKN014 
     TEMPO 2712/2722 4000 RADZ BKN008 
     BECMG 2720/2722 19020G30KT BKN020 
     TEMPO 2722/2807 6000 SHRA BKN014 
     BECMG 2806/2810 18015KT